sensor_id;sensor_type;location;lat;lon;timestamp;pressure;altitude;pressure_sealevel;temperature;humidity
36254;BME280;22291;52.250;21.228;2024-03-02T00:00:20;100035.86;;;6.69;90.03
36254;BME280;22291;52.250;21.228;2024-03-02T00:02:50;100040.42;;;6.69;90.28
36254;BME280;22291;52.250;21.228;2024-03-02T00:05:20;100044.14;;;6.73;90.39
36254;BME280;22291;52.250;21.228;2024-03-02T00:07:55;100044.38;;;6.74;90.82
36254;BME280;22291;52.250;21.228;2024-03-02T00:10:39;100042.80;;;6.73;90.06
36254;BME280;22291;52.250;21.228;2024-03-02T00:13:08;100038.50;;;6.72;90.09
36254;BME280;22291;52.250;21.228;2024-03-02T00:15:47;100034.75;;;6.70;90.23
36254;BME280;22291;52.250;21.228;2024-03-02T00:18:29;100038.57;;;6.67;90.06
36254;BME280;22291;52.250;21.228;2024-03-02T00:21:02;100034.88;;;6.63;90.09
36254;BME280;22291;52.250;21.228;2024-03-02T00:23:31;100041.38;;;6.59;90.11
36254;BME280;22291;52.250;21.228;2024-03-02T00:26:00;100035.46;;;6.57;90.18
36254;BME280;22291;52.250;21.228;2024-03-02T00:28:29;100033.09;;;6.56;90.13
36254;BME280;22291;52.250;21.228;2024-03-02T00:31:13;100033.11;;;6.53;90.31
36254;BME280;22291;52.250;21.228;2024-03-02T00:33:48;100026.44;;;6.50;90.37
36254;BME280;22291;52.250;21.228;2024-03-02T00:36:21;100030.21;;;6.47;90.45
36254;BME280;22291;52.250;21.228;2024-03-02T00:38:48;100024.63;;;6.43;90.79
36254;BME280;22291;52.250;21.228;2024-03-02T00:41:27;100030.56;;;6.40;90.56
36254;BME280;22291;52.250;21.228;2024-03-02T00:44:02;100032.73;;;6.38;90.60
36254;BME280;22291;52.250;21.228;2024-03-02T00:46:39;100026.91;;;6.33;90.87
36254;BME280;22291;52.250;21.228;2024-03-02T00:49:22;100035.25;;;6.32;90.78
36254;BME280;22291;52.250;21.228;2024-03-02T00:51:51;100025.62;;;6.28;91.15
36254;BME280;22291;52.250;21.228;2024-03-02T00:54:22;100031.58;;;6.23;91.47
36254;BME280;22291;52.250;21.228;2024-03-02T00:56:51;100032.68;;;6.22;91.37
36254;BME280;22291;52.250;21.228;2024-03-02T00:59:25;100025.98;;;6.19;91.49
36254;BME280;22291;52.250;21.228;2024-03-02T01:01:49;100028.16;;;6.17;91.59
36254;BME280;22291;52.250;21.228;2024-03-02T01:04:16;100028.17;;;6.14;91.82
36254;BME280;22291;52.250;21.228;2024-03-02T01:06:43;100017.20;;;6.11;91.83
36254;BME280;22291;52.250;21.228;2024-03-02T01:09:09;100031.97;;;6.11;92.04
36254;BME280;22291;52.250;21.228;2024-03-02T01:11:35;100025.82;;;6.08;92.47
36254;BME280;22291;52.250;21.228;2024-03-02T01:14:02;100015.39;;;6.06;92.13
36254;BME280;22291;52.250;21.228;2024-03-02T01:16:28;100015.12;;;6.05;92.46
36254;BME280;22291;52.250;21.228;2024-03-02T01:18:55;100016.75;;;6.04;92.23
36254;BME280;22291;52.250;21.228;2024-03-02T01:21:21;100016.48;;;6.03;92.31
36254;BME280;22291;52.250;21.228;2024-03-02T01:23:48;100011.16;;;6.00;92.31
36254;BME280;22291;52.250;21.228;2024-03-02T01:26:15;100011.70;;;6.00;92.29
36254;BME280;22291;52.250;21.228;2024-03-02T01:28:41;100009.02;;;6.00;92.58
36254;BME280;22291;52.250;21.228;2024-03-02T01:31:07;100009.03;;;5.97;92.52
36254;BME280;22291;52.250;21.228;2024-03-02T01:33:34;100002.87;;;5.96;92.59
36254;BME280;22291;52.250;21.228;2024-03-02T01:36:00;100011.17;;;5.95;92.48
36254;BME280;22291;52.250;21.228;2024-03-02T01:38:26;100008.22;;;5.94;92.48
36254;BME280;22291;52.250;21.228;2024-03-02T01:40:54;100009.33;;;5.93;92.61
36254;BME280;22291;52.250;21.228;2024-03-02T01:43:22;100006.13;;;5.91;92.55
36254;BME280;22291;52.250;21.228;2024-03-02T01:45:49;99999.70;;;5.89;92.70
36254;BME280;22291;52.250;21.228;2024-03-02T01:48:15;99995.95;;;5.88;92.97
36254;BME280;22291;52.250;21.228;2024-03-02T01:50:41;99995.45;;;5.86;93.00
36254;BME280;22291;52.250;21.228;2024-03-02T01:53:09;99999.75;;;5.84;92.92
36254;BME280;22291;52.250;21.228;2024-03-02T01:55:36;100001.62;;;5.84;93.27
36254;BME280;22291;52.250;21.228;2024-03-02T01:58:03;99999.22;;;5.82;93.29
36254;BME280;22291;52.250;21.228;2024-03-02T02:00:29;99997.63;;;5.81;93.09
36254;BME280;22291;52.250;21.228;2024-03-02T02:02:56;99986.67;;;5.77;93.26
36254;BME280;22291;52.250;21.228;2024-03-02T02:05:24;99989.08;;;5.76;93.32
36254;BME280;22291;52.250;21.228;2024-03-02T02:07:51;99990.16;;;5.75;93.33
36254;BME280;22291;52.250;21.228;2024-03-02T02:10:17;99997.97;;;5.74;93.51
36254;BME280;22291;52.250;21.228;2024-03-02T02:12:44;99989.92;;;5.72;93.88
36254;BME280;22291;52.250;21.228;2024-03-02T02:15:30;99991.02;;;5.71;93.80
36254;BME280;22291;52.250;21.228;2024-03-02T02:17:57;99986.48;;;5.69;93.84
36254;BME280;22291;52.250;21.228;2024-03-02T02:20:25;99993.48;;;5.67;93.79
36254;BME280;22291;52.250;21.228;2024-03-02T02:23:01;99989.73;;;5.66;94.10
36254;BME280;22291;52.250;21.228;2024-03-02T02:25:29;99987.88;;;5.64;93.96
36254;BME280;22291;52.250;21.228;2024-03-02T02:27:57;99980.63;;;5.61;94.12
36254;BME280;22291;52.250;21.228;2024-03-02T02:30:28;99985.76;;;5.60;94.23
36254;BME280;22291;52.250;21.228;2024-03-02T02:32:56;99982.30;;;5.57;94.34
36254;BME280;22291;52.250;21.228;2024-03-02T02:35:23;99987.11;;;5.58;94.52
36254;BME280;22291;52.250;21.228;2024-03-02T02:37:51;99979.34;;;5.56;94.61
36254;BME280;22291;52.250;21.228;2024-03-02T02:40:19;99977.20;;;5.56;94.50
36254;BME280;22291;52.250;21.228;2024-03-02T02:42:46;99972.95;;;5.52;94.61
36254;BME280;22291;52.250;21.228;2024-03-02T02:45:14;99979.66;;;5.52;94.65
36254;BME280;22291;52.250;21.228;2024-03-02T02:47:42;99981.01;;;5.50;94.79
36254;BME280;22291;52.250;21.228;2024-03-02T02:50:11;99981.84;;;5.48;94.72
36254;BME280;22291;52.250;21.228;2024-03-02T02:52:40;99980.26;;;5.47;94.95
36254;BME280;22291;52.250;21.228;2024-03-02T02:55:12;99982.67;;;5.46;94.93
36254;BME280;22291;52.250;21.228;2024-03-02T02:57:42;99974.62;;;5.43;95.43
36254;BME280;22291;52.250;21.228;2024-03-02T03:00:13;99978.14;;;5.41;95.50
36254;BME280;22291;52.250;21.228;2024-03-02T03:02:42;99974.16;;;5.38;95.28
36254;BME280;22291;52.250;21.228;2024-03-02T03:05:12;99982.48;;;5.37;95.30
36254;BME280;22291;52.250;21.228;2024-03-02T03:07:41;99977.11;;;5.37;95.19
36254;BME280;22291;52.250;21.228;2024-03-02T03:10:10;99971.23;;;5.35;95.22
36254;BME280;22291;52.250;21.228;2024-03-02T03:12:37;99969.11;;;5.32;95.41
36254;BME280;22291;52.250;21.228;2024-03-02T03:15:05;99971.56;;;5.28;95.38
36254;BME280;22291;52.250;21.228;2024-03-02T03:17:33;99966.72;;;5.28;95.27
36254;BME280;22291;52.250;21.228;2024-03-02T03:20:01;99968.64;;;5.24;95.83
36254;BME280;22291;52.250;21.228;2024-03-02T03:22:30;99962.73;;;5.22;95.83
36254;BME280;22291;52.250;21.228;2024-03-02T03:24:58;99969.20;;;5.21;95.92
36254;BME280;22291;52.250;21.228;2024-03-02T03:27:25;99960.37;;;5.18;95.89
36254;BME280;22291;52.250;21.228;2024-03-02T03:29:52;99957.42;;;5.17;96.12
36254;BME280;22291;52.250;21.228;2024-03-02T03:32:20;99957.69;;;5.16;95.97
36254;BME280;22291;52.250;21.228;2024-03-02T03:34:47;99962.02;;;5.14;96.03
36254;BME280;22291;52.250;21.228;2024-03-02T03:37:14;99959.07;;;5.13;96.54
36254;BME280;22291;52.250;21.228;2024-03-02T03:39:41;99962.30;;;5.13;96.55
36254;BME280;22291;52.250;21.228;2024-03-02T03:42:07;99954.53;;;5.11;96.58
36254;BME280;22291;52.250;21.228;2024-03-02T03:44:33;99961.23;;;5.11;96.60
36254;BME280;22291;52.250;21.228;2024-03-02T03:47:00;99965.54;;;5.10;96.51
36254;BME280;22291;52.250;21.228;2024-03-02T03:49:29;99961.24;;;5.09;96.61
36254;BME280;22291;52.250;21.228;2024-03-02T03:51:56;99961.00;;;5.08;96.63
36254;BME280;22291;52.250;21.228;2024-03-02T03:54:23;99957.26;;;5.06;96.79
36254;BME280;22291;52.250;21.228;2024-03-02T03:56:49;99961.28;;;5.03;96.90
36254;BME280;22291;52.250;21.228;2024-03-02T03:59:16;99953.00;;;5.02;97.23
36254;BME280;22291;52.250;21.228;2024-03-02T04:01:42;99961.31;;;5.01;97.18
36254;BME280;22291;52.250;21.228;2024-03-02T04:04:09;99956.47;;;5.00;97.43
36254;BME280;22291;52.250;21.228;2024-03-02T04:06:35;99949.53;;;4.99;97.40
36254;BME280;22291;52.250;21.228;2024-03-02T04:09:02;99948.47;;;4.98;97.42
36254;BME280;22291;52.250;21.228;2024-03-02T04:11:30;99954.38;;;4.97;97.59
36254;BME280;22291;52.250;21.228;2024-03-02T04:13:57;99952.22;;;4.97;97.53
36254;BME280;22291;52.250;21.228;2024-03-02T04:16:23;99956.23;;;4.97;97.64
36254;BME280;22291;52.250;21.228;2024-03-02T04:18:49;99952.48;;;4.98;97.60
36254;BME280;22291;52.250;21.228;2024-03-02T04:21:16;99952.22;;;4.97;97.63
36254;BME280;22291;52.250;21.228;2024-03-02T04:23:42;99960.26;;;4.97;97.55
36254;BME280;22291;52.250;21.228;2024-03-02T04:26:09;99958.92;;;4.97;97.64
36254;BME280;22291;52.250;21.228;2024-03-02T04:28:35;99960.02;;;4.96;97.81
36254;BME280;22291;52.250;21.228;2024-03-02T04:31:01;99961.87;;;4.98;98.08
36254;BME280;22291;52.250;21.228;2024-03-02T04:33:28;99965.62;;;4.97;98.21
36254;BME280;22291;52.250;21.228;2024-03-02T04:35:54;99971.80;;;4.95;98.34
36254;BME280;22291;52.250;21.228;2024-03-02T04:38:20;99964.55;;;4.95;98.33
36254;BME280;22291;52.250;21.228;2024-03-02T04:40:46;99967.23;;;4.95;98.19
36254;BME280;22291;52.250;21.228;2024-03-02T04:43:13;99965.89;;;4.95;98.45
36254;BME280;22291;52.250;21.228;2024-03-02T04:45:41;99960.80;;;4.96;98.30
36254;BME280;22291;52.250;21.228;2024-03-02T04:48:08;99952.77;;;4.96;98.45
36254;BME280;22291;52.250;21.228;2024-03-02T04:50:34;99954.63;;;4.98;98.39
36254;BME280;22291;52.250;21.228;2024-03-02T04:53:01;99950.88;;;4.97;98.39
36254;BME280;22291;52.250;21.228;2024-03-02T04:55:28;99961.59;;;4.97;98.37
36254;BME280;22291;52.250;21.228;2024-03-02T04:57:55;99960.26;;;4.97;98.53
36254;BME280;22291;52.250;21.228;2024-03-02T05:00:22;99956.52;;;4.98;98.76
36254;BME280;22291;52.250;21.228;2024-03-02T05:02:49;99961.87;;;4.98;98.62
36254;BME280;22291;52.250;21.228;2024-03-02T05:05:15;99961.87;;;4.98;98.64
36254;BME280;22291;52.250;21.228;2024-03-02T05:07:42;99955.95;;;4.98;98.88
36254;BME280;22291;52.250;21.228;2024-03-02T05:10:10;99960.22;;;5.02;98.78
36254;BME280;22291;52.250;21.228;2024-03-02T05:12:40;99954.34;;;5.02;98.88
36254;BME280;22291;52.250;21.228;2024-03-02T05:15:14;99958.36;;;5.02;98.68
36254;BME280;22291;52.250;21.228;2024-03-02T05:17:42;99965.30;;;5.03;98.86
36254;BME280;22291;52.250;21.228;2024-03-02T05:20:10;99971.48;;;5.04;98.97
36254;BME280;22291;52.250;21.228;2024-03-02T05:22:37;99973.34;;;5.03;98.93
36254;BME280;22291;52.250;21.228;2024-03-02T05:25:07;99976.30;;;5.04;99.04
36254;BME280;22291;52.250;21.228;2024-03-02T05:27:35;99973.86;;;5.05;99.11
36254;BME280;22291;52.250;21.228;2024-03-02T05:30:03;99983.79;;;5.08;99.27
36254;BME280;22291;52.250;21.228;2024-03-02T05:32:33;99980.83;;;5.09;99.22
36254;BME280;22291;52.250;21.228;2024-03-02T05:35:00;99986.44;;;5.10;99.49
36254;BME280;22291;52.250;21.228;2024-03-02T05:37:26;99986.19;;;5.09;99.41
36254;BME280;22291;52.250;21.228;2024-03-02T05:39:52;99993.69;;;5.10;99.54
36254;BME280;22291;52.250;21.228;2024-03-02T05:42:20;99997.16;;;5.10;99.72
36254;BME280;22291;52.250;21.228;2024-03-02T05:44:46;99994.99;;;5.12;99.72
36254;BME280;22291;52.250;21.228;2024-03-02T05:47:12;99997.16;;;5.13;99.60
36254;BME280;22291;52.250;21.228;2024-03-02T05:49:38;99993.37;;;5.14;99.73
36254;BME280;22291;52.250;21.228;2024-03-02T05:52:06;100002.76;;;5.16;99.70
36254;BME280;22291;52.250;21.228;2024-03-02T05:54:34;100013.72;;;5.20;99.66
36254;BME280;22291;52.250;21.228;2024-03-02T05:57:01;100008.88;;;5.22;99.71
36254;BME280;22291;52.250;21.228;2024-03-02T05:59:30;100004.30;;;5.22;99.61
36254;BME280;22291;52.250;21.228;2024-03-02T06:01:56;100006.70;;;5.24;99.72
36254;BME280;22291;52.250;21.228;2024-03-02T06:04:22;100010.73;;;5.24;99.85
36254;BME280;22291;52.250;21.228;2024-03-02T06:06:49;100013.41;;;5.24;99.80
36254;BME280;22291;52.250;21.228;2024-03-02T06:09:15;100014.20;;;5.27;99.73
36254;BME280;22291;52.250;21.228;2024-03-02T06:11:42;100022.76;;;5.29;99.77
36254;BME280;22291;52.250;21.228;2024-03-02T06:14:09;100028.39;;;5.30;99.80
36254;BME280;22291;52.250;21.228;2024-03-02T06:16:35;100030.01;;;5.31;99.84
36254;BME280;22291;52.250;21.228;2024-03-02T06:19:01;100027.02;;;5.33;99.89
36254;BME280;22291;52.250;21.228;2024-03-02T06:21:29;100028.63;;;5.34;99.96
36254;BME280;22291;52.250;21.228;2024-03-02T06:23:57;100018.41;;;5.36;100.00
36254;BME280;22291;52.250;21.228;2024-03-02T06:26:24;100030.48;;;5.38;100.00
36254;BME280;22291;52.250;21.228;2024-03-02T06:28:50;100027.52;;;5.40;100.00
36254;BME280;22291;52.250;21.228;2024-03-02T06:31:16;100030.95;;;5.43;100.00
36254;BME280;22291;52.250;21.228;2024-03-02T06:33:42;100033.09;;;5.46;100.00
36254;BME280;22291;52.250;21.228;2024-03-02T06:36:08;100035.77;;;5.49;100.00
36254;BME280;22291;52.250;21.228;2024-03-02T06:38:35;100035.20;;;5.52;100.00
36254;BME280;22291;52.250;21.228;2024-03-02T06:41:02;100037.85;;;5.54;100.00
36254;BME280;22291;52.250;21.228;2024-03-02T06:43:29;100034.34;;;5.59;100.00
36254;BME280;22291;52.250;21.228;2024-03-02T06:45:55;100039.15;;;5.59;100.00
36254;BME280;22291;52.250;21.228;2024-03-02T06:48:21;100034.84;;;5.61;100.00
36254;BME280;22291;52.250;21.228;2024-03-02T06:50:49;100041.79;;;5.65;100.00
36254;BME280;22291;52.250;21.228;2024-03-02T06:53:17;100040.96;;;5.67;100.00
36254;BME280;22291;52.250;21.228;2024-03-02T06:55:44;100039.89;;;5.68;99.91
36254;BME280;22291;52.250;21.228;2024-03-02T06:58:12;100040.44;;;5.67;99.87
36254;BME280;22291;52.250;21.228;2024-03-02T07:00:42;100047.38;;;5.71;99.93
36254;BME280;22291;52.250;21.228;2024-03-02T07:03:10;100046.83;;;5.74;99.88
36254;BME280;22291;52.250;21.228;2024-03-02T07:05:38;100032.85;;;5.74;99.94
36254;BME280;22291;52.250;21.228;2024-03-02T07:08:05;100029.62;;;5.75;99.74
36254;BME280;22291;52.250;21.228;2024-03-02T07:10:32;100033.36;;;5.76;99.67
36254;BME280;22291;52.250;21.228;2024-03-02T07:12:58;100042.75;;;5.79;99.54
36254;BME280;22291;52.250;21.228;2024-03-02T07:15:24;100036.27;;;5.83;99.71
36254;BME280;22291;52.250;21.228;2024-03-02T07:17:52;100049.88;;;5.89;99.72
36254;BME280;22291;52.250;21.228;2024-03-02T07:20:18;100040.20;;;5.90;99.54
36254;BME280;22291;52.250;21.228;2024-03-02T07:22:45;100046.09;;;5.92;99.36
36254;BME280;22291;52.250;21.228;2024-03-02T07:25:11;100039.91;;;5.94;99.38
36254;BME280;22291;52.250;21.228;2024-03-02T07:27:39;100041.25;;;5.97;99.40
36254;BME280;22291;52.250;21.228;2024-03-02T07:30:07;100045.73;;;6.04;99.46
36254;BME280;22291;52.250;21.228;2024-03-02T07:32:34;100050.53;;;6.10;99.52
36254;BME280;22291;52.250;21.228;2024-03-02T07:35:00;100052.62;;;6.13;99.23
36254;BME280;22291;52.250;21.228;2024-03-02T07:37:27;100055.02;;;6.17;99.11
36254;BME280;22291;52.250;21.228;2024-03-02T07:39:54;100050.93;;;6.22;99.03
36254;BME280;22291;52.250;21.228;2024-03-02T07:42:21;100049.25;;;6.29;99.25
36254;BME280;22291;52.250;21.228;2024-03-02T07:44:47;100051.83;;;6.36;99.42
36254;BME280;22291;52.250;21.228;2024-03-02T07:47:14;100057.41;;;6.43;98.83
36254;BME280;22291;52.250;21.228;2024-03-02T07:49:40;100064.11;;;6.45;98.48
36254;BME280;22291;52.250;21.228;2024-03-02T07:52:07;100049.27;;;6.50;98.29
36254;BME280;22291;52.250;21.228;2024-03-02T07:54:33;100046.26;;;6.54;98.32
36254;BME280;22291;52.250;21.228;2024-03-02T07:57:00;100046.14;;;6.62;98.60
36254;BME280;22291;52.250;21.228;2024-03-02T07:59:27;100042.60;;;6.67;98.16
36254;BME280;22291;52.250;21.228;2024-03-02T08:01:53;100043.59;;;6.73;97.93
36254;BME280;22291;52.250;21.228;2024-03-02T08:04:21;100045.98;;;6.78;97.74
36254;BME280;22291;52.250;21.228;2024-03-02T08:06:49;100053.16;;;6.82;97.37
36254;BME280;22291;52.250;21.228;2024-03-02T08:09:15;100062.20;;;6.89;97.76
36254;BME280;22291;52.250;21.228;2024-03-02T08:11:42;100065.94;;;6.93;97.21
36254;BME280;22291;52.250;21.228;2024-03-02T08:14:08;100064.54;;;6.96;96.92
36254;BME280;22291;52.250;21.228;2024-03-02T08:16:34;100062.64;;;6.96;96.60
36254;BME280;22291;52.250;21.228;2024-03-02T08:19:01;100062.64;;;6.96;96.25
36254;BME280;22291;52.250;21.228;2024-03-02T08:21:27;100065.81;;;7.01;96.13
36254;BME280;22291;52.250;21.228;2024-03-02T08:23:57;100064.97;;;7.03;96.19
36254;BME280;22291;52.250;21.228;2024-03-02T08:26:24;100065.16;;;7.09;96.31
36254;BME280;22291;52.250;21.228;2024-03-02T08:28:50;100073.18;;;7.11;96.30
36254;BME280;22291;52.250;21.228;2024-03-02T08:31:17;100066.94;;;7.16;96.15
36254;BME280;22291;52.250;21.228;2024-03-02T08:33:43;100061.53;;;7.19;95.70
36254;BME280;22291;52.250;21.228;2024-03-02T08:36:09;100056.66;;;7.21;95.57
36254;BME280;22291;52.250;21.228;2024-03-02T08:38:36;100052.26;;;7.27;95.90
36254;BME280;22291;52.250;21.228;2024-03-02T08:41:03;100067.69;;;7.38;96.19
36254;BME280;22291;52.250;21.228;2024-03-02T08:43:30;100070.80;;;7.45;95.71
36254;BME280;22291;52.250;21.228;2024-03-02T08:45:57;100069.92;;;7.50;94.79
36254;BME280;22291;52.250;21.228;2024-03-02T08:48:23;100073.63;;;7.54;95.08
36254;BME280;22291;52.250;21.228;2024-03-02T08:50:50;100065.70;;;7.63;95.36
36254;BME280;22291;52.250;21.228;2024-03-02T08:53:16;100077.73;;;7.68;94.81
36254;BME280;22291;52.250;21.228;2024-03-02T08:55:45;100076.03;;;7.72;94.76
36254;BME280;22291;52.250;21.228;2024-03-02T08:58:12;100068.42;;;7.77;94.59
36254;BME280;22291;52.250;21.228;2024-03-02T09:00:39;100075.59;;;7.81;94.51
36254;BME280;22291;52.250;21.228;2024-03-02T09:03:06;100078.55;;;7.82;93.81
36254;BME280;22291;52.250;21.228;2024-03-02T09:05:33;100075.92;;;7.80;93.38
36254;BME280;22291;52.250;21.228;2024-03-02T09:07:59;100078.84;;;7.81;93.07
36254;BME280;22291;52.250;21.228;2024-03-02T09:10:26;100081.30;;;7.80;92.55
36254;BME280;22291;52.250;21.228;2024-03-02T09:12:52;100078.44;;;7.74;92.36
36254;BME280;22291;52.250;21.228;2024-03-02T09:15:18;100085.95;;;7.74;92.66
36254;BME280;22291;52.250;21.228;2024-03-02T09:17:45;100089.12;;;7.79;93.04
36254;BME280;22291;52.250;21.228;2024-03-02T09:20:11;100081.51;;;7.83;92.65
36254;BME280;22291;52.250;21.228;2024-03-02T09:22:39;100078.00;;;7.83;92.31
36254;BME280;22291;52.250;21.228;2024-03-02T09:25:07;100076.91;;;7.84;92.33
36254;BME280;22291;52.250;21.228;2024-03-02T09:27:38;100077.97;;;7.85;92.56
36254;BME280;22291;52.250;21.228;2024-03-02T09:30:08;100072.29;;;7.87;92.64
36254;BME280;22291;52.250;21.228;2024-03-02T09:32:37;100076.73;;;7.94;92.82
36254;BME280;22291;52.250;21.228;2024-03-02T09:35:04;100085.52;;;8.00;92.57
36254;BME280;22291;52.250;21.228;2024-03-02T09:37:31;100079.84;;;8.01;92.70
36254;BME280;22291;52.250;21.228;2024-03-02T09:39:58;100084.61;;;8.07;92.68
36254;BME280;22291;52.250;21.228;2024-03-02T09:42:25;100085.30;;;8.13;92.27
36254;BME280;22291;52.250;21.228;2024-03-02T09:44:52;100095.43;;;8.18;91.71
36254;BME280;22291;52.250;21.228;2024-03-02T09:47:19;100092.20;;;8.19;91.36
36254;BME280;22291;52.250;21.228;2024-03-02T09:49:45;100090.86;;;8.19;91.43
36254;BME280;22291;52.250;21.228;2024-03-02T09:52:12;100091.30;;;8.23;91.87
36254;BME280;22291;52.250;21.228;2024-03-02T09:54:40;100080.91;;;8.31;92.10
36254;BME280;22291;52.250;21.228;2024-03-02T09:57:07;100082.98;;;8.36;91.55
36254;BME280;22291;52.250;21.228;2024-03-02T09:59:33;100082.52;;;8.48;92.34
36254;BME280;22291;52.250;21.228;2024-03-02T10:02:02;100085.80;;;8.59;91.75
36254;BME280;22291;52.250;21.228;2024-03-02T10:04:30;100086.15;;;8.69;91.30
36254;BME280;22291;52.250;21.228;2024-03-02T10:07:09;100083.24;;;8.79;91.02
36254;BME280;22291;52.250;21.228;2024-03-02T10:09:46;100074.45;;;8.87;91.09
36254;BME280;22291;52.250;21.228;2024-03-02T10:12:16;100068.88;;;8.95;89.76
36254;BME280;22291;52.250;21.228;2024-03-02T10:14:44;100066.66;;;8.97;89.12
36254;BME280;22291;52.250;21.228;2024-03-02T10:17:12;100064.78;;;8.97;88.73
36254;BME280;22291;52.250;21.228;2024-03-02T10:19:41;100068.16;;;9.03;89.18
36254;BME280;22291;52.250;21.228;2024-03-02T10:22:09;100063.25;;;9.05;88.66
36254;BME280;22291;52.250;21.228;2024-03-02T10:24:41;100062.95;;;9.07;88.48
36254;BME280;22291;52.250;21.228;2024-03-02T10:27:15;100057.92;;;9.14;89.13
36254;BME280;22291;52.250;21.228;2024-03-02T10:29:52;100059.11;;;9.22;88.60
36254;BME280;22291;52.250;21.228;2024-03-02T10:32:21;100054.64;;;9.28;89.35
36254;BME280;22291;52.250;21.228;2024-03-02T10:34:50;100061.63;;;9.41;89.16
36254;BME280;22291;52.250;21.228;2024-03-02T10:37:16;100065.18;;;9.50;88.87
36254;BME280;22291;52.250;21.228;2024-03-02T10:39:43;100057.70;;;9.58;88.43
36254;BME280;22291;52.250;21.228;2024-03-02T10:42:14;100053.95;;;9.68;88.66
36254;BME280;22291;52.250;21.228;2024-03-02T10:44:42;100050.30;;;9.84;89.15
36254;BME280;22291;52.250;21.228;2024-03-02T10:47:09;100048.02;;;10.00;88.08
36254;BME280;22291;52.250;21.228;2024-03-02T10:49:38;100048.28;;;10.09;87.20
36254;BME280;22291;52.250;21.228;2024-03-02T10:52:08;100047.21;;;10.19;86.92
36254;BME280;22291;52.250;21.228;2024-03-02T10:54:35;100037.16;;;10.31;85.91
36254;BME280;22291;52.250;21.228;2024-03-02T10:57:07;100032.12;;;10.38;86.71
36254;BME280;22291;52.250;21.228;2024-03-02T10:59:37;100033.03;;;10.54;85.79
36254;BME280;22291;52.250;21.228;2024-03-02T11:02:06;100036.87;;;10.61;84.90
36254;BME280;22291;52.250;21.228;2024-03-02T11:04:34;100030.28;;;10.65;84.57
36254;BME280;22291;52.250;21.228;2024-03-02T11:07:09;100029.19;;;10.75;85.09
36254;BME280;22291;52.250;21.228;2024-03-02T11:09:41;100037.37;;;10.81;83.73
36254;BME280;22291;52.250;21.228;2024-03-02T11:12:23;100037.79;;;10.86;83.39
36254;BME280;22291;52.250;21.228;2024-03-02T11:15:05;100038.20;;;10.90;83.79
36254;BME280;22291;52.250;21.228;2024-03-02T11:17:34;100042.11;;;11.04;83.85
36254;BME280;22291;52.250;21.228;2024-03-02T11:20:03;100041.31;;;11.12;81.38
36254;BME280;22291;52.250;21.228;2024-03-02T11:22:30;100036.44;;;11.03;80.19
36254;BME280;22291;52.250;21.228;2024-03-02T11:24:56;100039.88;;;10.97;80.96
36254;BME280;22291;52.250;21.228;2024-03-02T11:33:08;100032.39;;;11.29;82.15
36254;BME280;22291;52.250;21.228;2024-03-02T11:35:38;100034.05;;;11.36;81.41
36254;BME280;22291;52.250;21.228;2024-03-02T11:38:11;100037.38;;;11.42;80.97
36254;BME280;22291;52.250;21.228;2024-03-02T11:40:39;100027.05;;;11.44;79.36
36254;BME280;22291;52.250;21.228;2024-03-02T11:43:07;100024.41;;;11.42;80.10
36254;BME280;22291;52.250;21.228;2024-03-02T11:45:37;100014.77;;;11.47;79.75
36254;BME280;22291;52.250;21.228;2024-03-02T11:48:09;100011.73;;;11.48;80.49
36254;BME280;22291;52.250;21.228;2024-03-02T11:50:41;100016.56;;;11.57;80.78
36254;BME280;22291;52.250;21.228;2024-03-02T11:53:12;100011.47;;;11.65;80.45
36254;BME280;22291;52.250;21.228;2024-03-02T11:55:40;100008.27;;;11.71;80.71
36254;BME280;22291;52.250;21.228;2024-03-02T11:58:07;100012.05;;;11.79;79.55
36254;BME280;22291;52.250;21.228;2024-03-02T12:00:34;100001.32;;;11.76;78.99
36254;BME280;22291;52.250;21.228;2024-03-02T12:03:05;99999.25;;;11.73;79.05
36254;BME280;22291;52.250;21.228;2024-03-02T12:05:35;99998.93;;;11.75;78.78
36254;BME280;22291;52.250;21.228;2024-03-02T12:08:06;99993.91;;;11.71;78.55
36254;BME280;22291;52.250;21.228;2024-03-02T12:10:34;99987.38;;;11.72;78.70
36254;BME280;22291;52.250;21.228;2024-03-02T12:13:03;99992.38;;;11.76;79.10
36254;BME280;22291;52.250;21.228;2024-03-02T12:15:34;99993.37;;;11.86;79.69
36254;BME280;22291;52.250;21.228;2024-03-02T12:18:09;100009.70;;;12.01;78.49
36254;BME280;22291;52.250;21.228;2024-03-02T12:20:35;100020.15;;;11.96;77.42
36254;BME280;22291;52.250;21.228;2024-03-02T12:23:03;100019.11;;;12.04;78.35
36254;BME280;22291;52.250;21.228;2024-03-02T12:25:31;100022.84;;;12.20;78.53
36254;BME280;22291;52.250;21.228;2024-03-02T12:28:01;100022.75;;;12.38;77.67
36254;BME280;22291;52.250;21.228;2024-03-02T12:30:34;100020.53;;;12.40;77.09
36254;BME280;22291;52.250;21.228;2024-03-02T12:33:01;100016.36;;;12.42;75.58
36254;BME280;22291;52.250;21.228;2024-03-02T12:35:28;100020.04;;;12.38;75.91
36254;BME280;22291;52.250;21.228;2024-03-02T12:37:55;100021.64;;;12.39;75.94
36254;BME280;22291;52.250;21.228;2024-03-02T12:40:22;100024.78;;;12.35;75.79
36254;BME280;22291;52.250;21.228;2024-03-02T12:42:49;100026.33;;;12.29;75.18
36254;BME280;22291;52.250;21.228;2024-03-02T12:45:17;100028.70;;;12.16;74.45
36254;BME280;22291;52.250;21.228;2024-03-02T12:47:45;100029.28;;;12.07;74.88
36254;BME280;22291;52.250;21.228;2024-03-02T12:50:12;100021.06;;;12.09;76.33
36254;BME280;22291;52.250;21.228;2024-03-02T12:52:38;100025.74;;;12.15;76.24
36254;BME280;22291;52.250;21.228;2024-03-02T12:55:05;100018.97;;;12.15;76.05
36254;BME280;22291;52.250;21.228;2024-03-02T12:57:33;100019.92;;;12.19;76.21
36254;BME280;22291;52.250;21.228;2024-03-02T13:00:05;100018.89;;;12.18;75.28